createdAt,value
2023-02-02T00:01:09.784Z,7.48
2023-02-02T00:03:37.695Z,7.46
2023-02-02T00:06:04.513Z,7.50
2023-02-02T00:08:31.150Z,7.48
2023-02-02T00:10:57.624Z,7.51
2023-02-02T00:13:24.122Z,7.51
2023-02-02T00:15:53.023Z,7.49
2023-02-02T00:18:19.496Z,7.48
2023-02-02T00:20:49.223Z,7.48
2023-02-02T00:23:17.378Z,7.45
2023-02-02T00:25:43.901Z,7.45
2023-02-02T00:28:10.357Z,7.42
2023-02-02T00:30:36.833Z,7.41
2023-02-02T00:33:03.371Z,7.40
2023-02-02T00:35:29.946Z,7.38
2023-02-02T00:37:56.418Z,7.35
2023-02-02T00:40:22.921Z,7.32
2023-02-02T00:42:50.444Z,7.29
2023-02-02T00:45:17.132Z,7.27
2023-02-02T00:47:52.423Z,7.28
2023-02-02T00:50:20.813Z,7.26
2023-02-02T00:52:48.537Z,7.24
2023-02-02T00:55:16.507Z,7.22
2023-02-02T00:57:44.403Z,7.22
2023-02-02T01:00:17.039Z,7.20
2023-02-02T01:02:43.597Z,7.18
2023-02-02T01:05:11.894Z,7.17
2023-02-02T01:07:38.914Z,7.19
2023-02-02T01:10:08.763Z,7.18
2023-02-02T01:12:35.294Z,7.18
2023-02-02T01:15:02.779Z,7.18
2023-02-02T01:17:29.286Z,7.14
2023-02-02T01:19:55.770Z,7.10
2023-02-02T01:22:22.223Z,7.10
2023-02-02T01:24:48.649Z,7.10
2023-02-02T01:27:15.191Z,7.08
2023-02-02T01:29:41.760Z,7.03
2023-02-02T01:32:08.336Z,7.01
2023-02-02T01:34:35.020Z,7.00
2023-02-02T01:37:01.642Z,6.97
2023-02-02T01:39:28.101Z,6.94
2023-02-02T01:41:54.549Z,6.92
2023-02-02T01:44:54.935Z,6.96
2023-02-02T01:47:27.075Z,6.96
2023-02-02T01:49:55.377Z,6.94
2023-02-02T01:52:24.196Z,6.93
2023-02-02T01:54:56.305Z,6.93
2023-02-02T01:57:42.051Z,6.93
2023-02-02T02:00:12.373Z,6.90
2023-02-02T02:02:39.952Z,6.88
2023-02-02T02:05:07.833Z,6.89
2023-02-02T02:07:34.527Z,6.91
2023-02-02T02:10:01.054Z,6.95
2023-02-02T02:12:27.510Z,6.94
2023-02-02T02:15:12.571Z,6.95
2023-02-02T02:18:03.685Z,6.95
2023-02-02T02:21:10.132Z,7.02
2023-02-02T02:24:29.237Z,7.06
2023-02-02T02:27:14.300Z,7.03
2023-02-02T02:30:16.669Z,6.99
2023-02-02T02:33:14.680Z,7.05
2023-02-02T02:35:59.417Z,7.08
2023-02-02T02:39:03.033Z,7.06
2023-02-02T02:41:34.741Z,7.05
2023-02-02T02:44:12.315Z,7.05
2023-02-02T02:46:39.138Z,7.03
2023-02-02T02:49:09.693Z,7.05
2023-02-02T02:51:39.175Z,7.07
2023-02-02T02:54:06.485Z,7.11
2023-02-02T02:56:41.890Z,7.14
2023-02-02T02:59:38.057Z,7.16
2023-02-02T03:02:22.451Z,7.15
2023-02-02T03:05:29.069Z,7.19
2023-02-02T03:08:11.270Z,7.18
2023-02-02T03:10:40.930Z,7.20
2023-02-02T03:13:12.142Z,7.18
2023-02-02T03:15:43.446Z,7.18
2023-02-02T03:18:12.696Z,7.22
2023-02-02T03:20:39.309Z,7.22
2023-02-02T03:23:05.820Z,7.23
2023-02-02T03:25:32.323Z,7.22
2023-02-02T03:27:58.908Z,7.23
2023-02-02T03:30:25.695Z,7.25
2023-02-02T03:32:52.937Z,7.26
2023-02-02T03:35:22.895Z,7.28
2023-02-02T03:37:49.663Z,7.26
2023-02-02T03:40:16.386Z,7.30
2023-02-02T03:42:42.853Z,7.32
2023-02-02T03:45:10.245Z,7.33
2023-02-02T03:47:36.832Z,7.34
2023-02-02T03:50:03.449Z,7.34
2023-02-02T03:52:29.881Z,7.34
2023-02-02T03:54:56.415Z,7.33
2023-02-02T03:57:22.983Z,7.36
2023-02-02T03:59:49.532Z,7.39
2023-02-02T04:02:16.042Z,7.39
2023-02-02T04:04:42.475Z,7.42
2023-02-02T04:07:08.972Z,7.42
2023-02-02T04:09:35.470Z,7.44
2023-02-02T04:12:01.969Z,7.42
2023-02-02T04:14:28.486Z,7.45
2023-02-02T04:16:54.962Z,7.44
2023-02-02T04:19:21.430Z,7.45
2023-02-02T04:21:47.926Z,7.44
2023-02-02T04:24:15.038Z,7.46
2023-02-02T04:26:42.481Z,7.48
2023-02-02T04:29:09.333Z,7.50
2023-02-02T04:31:35.888Z,7.49
2023-02-02T04:34:02.973Z,7.49
2023-02-02T04:36:29.667Z,7.48
2023-02-02T04:38:56.374Z,7.51
2023-02-02T04:41:23.405Z,7.52
2023-02-02T04:43:49.940Z,7.52
2023-02-02T04:46:16.591Z,7.54
2023-02-02T04:48:43.172Z,7.54
2023-02-02T04:51:13.312Z,7.53
2023-02-02T04:53:41.042Z,7.56
2023-02-02T04:56:09.832Z,7.57
2023-02-02T04:58:36.416Z,7.57
2023-02-02T05:01:09.247Z,7.57
2023-02-02T05:03:35.738Z,7.55
2023-02-02T05:06:03.872Z,7.58
2023-02-02T05:08:30.353Z,7.62
2023-02-02T05:10:56.931Z,7.62
2023-02-02T05:13:23.495Z,7.64
2023-02-02T05:15:49.986Z,7.66
2023-02-02T05:18:16.586Z,7.67
2023-02-02T05:20:43.055Z,7.67
2023-02-02T05:23:09.553Z,7.68
2023-02-02T05:25:35.990Z,7.71
2023-02-02T05:28:02.453Z,7.71
2023-02-02T05:30:28.947Z,7.72
2023-02-02T05:32:55.467Z,7.74
2023-02-02T05:35:22.087Z,7.73
2023-02-02T05:37:48.635Z,7.72
2023-02-02T05:40:15.191Z,7.74
2023-02-02T05:42:41.631Z,7.73
2023-02-02T05:45:08.570Z,7.73
2023-02-02T05:47:35.741Z,7.74
2023-02-02T05:50:02.947Z,7.73
2023-02-02T05:52:34.644Z,7.74
2023-02-02T05:55:01.216Z,7.74
2023-02-02T05:57:28.052Z,7.74
2023-02-02T05:59:54.992Z,7.74
2023-02-02T06:02:21.501Z,7.74
2023-02-02T06:04:48.030Z,7.73
2023-02-02T06:07:14.512Z,7.73
2023-02-02T06:09:40.960Z,7.71
2023-02-02T06:12:07.621Z,7.72
2023-02-02T06:14:34.131Z,7.70
2023-02-02T06:17:00.605Z,7.70
2023-02-02T06:19:27.068Z,7.70
2023-02-02T06:21:53.557Z,7.66
2023-02-02T06:24:20.005Z,7.63
2023-02-02T06:26:46.473Z,7.62
2023-02-02T06:29:13.883Z,7.62
2023-02-02T06:31:40.557Z,7.61
2023-02-02T06:34:07.129Z,7.58
2023-02-02T06:36:33.610Z,7.54
2023-02-02T06:39:00.115Z,7.56
2023-02-02T06:41:26.617Z,7.54
2023-02-02T06:43:53.119Z,7.53
2023-02-02T06:46:19.689Z,7.52
2023-02-02T06:48:46.266Z,7.51
2023-02-02T06:51:12.791Z,7.47
2023-02-02T06:53:39.312Z,7.48
2023-02-02T06:56:07.680Z,7.45
2023-02-02T06:58:34.787Z,7.46
2023-02-02T07:01:05.703Z,7.47
2023-02-02T07:03:32.724Z,7.47
2023-02-02T07:05:59.257Z,7.42
2023-02-02T07:08:25.802Z,7.42
2023-02-02T07:11:12.894Z,7.42
2023-02-02T07:13:38.805Z,7.41
2023-02-02T07:16:05.764Z,7.39
2023-02-02T07:18:32.355Z,7.40
2023-02-02T07:21:00.407Z,7.38
2023-02-02T07:23:30.602Z,7.38
2023-02-02T07:26:07.969Z,7.38
2023-02-02T07:28:35.438Z,7.36
2023-02-02T07:31:13.326Z,7.36
2023-02-02T07:33:41.783Z,7.36
2023-02-02T07:36:08.365Z,7.33
2023-02-02T07:38:34.893Z,7.32
2023-02-02T07:41:01.620Z,7.32
2023-02-02T07:43:28.174Z,7.32
2023-02-02T07:45:55.519Z,7.31
2023-02-02T07:48:21.994Z,7.31
2023-02-02T07:50:48.456Z,7.31
2023-02-02T07:53:14.989Z,7.35
2023-02-02T07:55:41.477Z,7.34
2023-02-02T07:58:10.211Z,7.36
2023-02-02T08:00:36.859Z,7.34
2023-02-02T08:03:03.399Z,7.35
2023-02-02T08:05:29.953Z,7.38
2023-02-02T08:07:56.419Z,7.39
2023-02-02T08:10:22.880Z,7.40
2023-02-02T08:12:49.335Z,7.44
2023-02-02T08:15:15.967Z,7.47
2023-02-02T08:17:46.027Z,7.50
2023-02-02T08:20:13.651Z,7.53
2023-02-02T08:22:40.113Z,7.54
2023-02-02T08:25:07.140Z,7.62
2023-02-02T08:27:33.625Z,7.64
2023-02-02T08:30:00.235Z,7.66
2023-02-02T08:32:26.730Z,7.71
2023-02-02T08:34:53.669Z,7.71
2023-02-02T08:37:20.134Z,7.69
2023-02-02T08:39:46.636Z,7.66
2023-02-02T08:42:13.113Z,7.66
2023-02-02T08:45:59.573Z,7.68
2023-02-02T08:47:29.393Z,7.68
2023-02-02T08:49:56.069Z,7.70
2023-02-02T08:52:24.806Z,7.73
2023-02-02T08:54:52.153Z,7.74
2023-02-02T08:57:18.651Z,7.74
2023-02-02T08:59:45.116Z,7.75
2023-02-02T09:02:13.780Z,7.79
2023-02-02T09:04:45.511Z,7.78
2023-02-02T09:07:12.054Z,7.80
2023-02-02T09:09:38.494Z,7.80
2023-02-02T09:12:04.997Z,7.84
2023-02-02T09:14:31.560Z,7.88
2023-02-02T09:16:58.147Z,7.90
2023-02-02T09:19:24.728Z,7.92
2023-02-02T09:21:51.285Z,7.92
2023-02-02T09:24:17.821Z,7.91
2023-02-02T09:26:45.144Z,7.95
2023-02-02T09:29:13.500Z,7.97
2023-02-02T09:31:40.119Z,8.01
2023-02-02T09:34:09.246Z,8.02
2023-02-02T09:36:37.234Z,8.06
2023-02-02T09:39:05.423Z,8.08
2023-02-02T09:41:37.865Z,8.14
2023-02-02T09:44:14.362Z,8.16
2023-02-02T09:47:10.072Z,8.15
2023-02-02T09:49:54.701Z,8.16
2023-02-02T09:52:42.227Z,8.19
2023-02-02T09:55:30.495Z,8.18
2023-02-02T09:58:28.646Z,8.19
2023-02-02T10:01:07.389Z,8.19
2023-02-02T10:04:01.241Z,8.15
2023-02-02T10:06:38.595Z,8.14
2023-02-02T10:09:32.800Z,8.11
2023-02-02T10:12:14.322Z,8.14
2023-02-02T10:14:46.539Z,8.16
2023-02-02T10:17:44.155Z,8.18
2023-02-02T10:20:23.188Z,8.20
2023-02-02T10:22:50.639Z,8.23
2023-02-02T10:25:17.855Z,8.28
2023-02-02T10:28:03.042Z,8.25
2023-02-02T10:30:46.743Z,8.29
2023-02-02T10:33:25.923Z,8.29
2023-02-02T10:36:03.762Z,8.32
2023-02-02T10:38:46.314Z,8.31
2023-02-02T10:41:23.189Z,8.30
2023-02-02T10:44:19.259Z,8.32
2023-02-02T10:46:51.391Z,8.34
2023-02-02T10:49:32.576Z,8.32
2023-02-02T10:52:11.317Z,8.37
2023-02-02T10:55:15.553Z,8.36
2023-02-02T10:58:01.205Z,8.35
2023-02-02T11:00:40.493Z,8.36
2023-02-02T11:03:10.380Z,8.33
2023-02-02T11:05:55.175Z,8.33
2023-02-02T11:08:43.071Z,8.33
2023-02-02T11:11:22.449Z,8.36
2023-02-02T11:13:55.443Z,8.39
2023-02-02T11:16:38.858Z,8.42
2023-02-02T11:19:29.960Z,8.49
2023-02-02T11:21:59.603Z,8.59
2023-02-02T11:24:45.118Z,8.62
2023-02-02T11:27:24.423Z,8.64
2023-02-02T11:30:01.300Z,8.62
2023-02-02T11:32:34.386Z,8.60
2023-02-02T11:35:03.986Z,8.63
2023-02-02T11:37:32.083Z,8.64
2023-02-02T11:40:20.865Z,8.65
2023-02-02T11:42:48.324Z,8.67
2023-02-02T11:45:20.788Z,8.66
2023-02-02T11:47:47.267Z,8.67
2023-02-02T11:50:26.356Z,8.66
2023-02-02T11:52:53.423Z,8.64
2023-02-02T11:55:28.187Z,8.65
2023-02-02T11:58:28.885Z,8.69
2023-02-02T12:00:57.096Z,8.67
2023-02-02T12:03:48.823Z,8.68
2023-02-02T12:06:24.509Z,8.70
2023-02-02T12:08:55.434Z,8.69
2023-02-02T12:11:40.575Z,8.68
2023-02-02T12:14:25.787Z,8.66
2023-02-02T12:16:59.241Z,8.64
2023-02-02T12:19:50.552Z,8.65
2023-02-02T12:22:29.069Z,8.62
2023-02-02T12:25:09.288Z,8.63
2023-02-02T12:27:35.834Z,8.60
2023-02-02T12:30:22.561Z,8.60
2023-02-02T12:32:56.102Z,8.57
2023-02-02T12:35:37.565Z,8.58
2023-02-02T12:38:13.226Z,8.55
2023-02-02T12:40:58.353Z,8.56
2023-02-02T12:43:39.796Z,8.51
2023-02-02T12:46:11.603Z,8.48
2023-02-02T12:48:43.411Z,8.40
2023-02-02T12:51:20.100Z,8.34
2023-02-02T12:54:33.014Z,8.27
2023-02-02T12:57:07.811Z,8.16
2023-02-02T13:00:24.402Z,8.10
2023-02-02T13:02:59.870Z,8.05
2023-02-02T13:08:30.281Z,7.99
2023-02-02T13:11:29.911Z,7.97
2023-02-02T13:14:08.366Z,7.96
2023-02-02T13:16:40.318Z,7.93
2023-02-02T13:19:34.404Z,7.91
2023-02-02T13:22:03.851Z,7.94
2023-02-02T13:24:34.559Z,7.96
2023-02-02T13:27:05.813Z,7.92
2023-02-02T13:29:48.231Z,7.90
2023-02-02T13:32:23.295Z,7.89
2023-02-02T13:34:54.978Z,7.86
2023-02-02T13:37:37.544Z,7.82
2023-02-02T13:40:25.352Z,7.80
2023-02-02T13:43:22.929Z,7.81
2023-02-02T13:46:14.498Z,7.81
2023-02-02T13:49:00.330Z,7.84
2023-02-02T13:51:41.767Z,7.82
2023-02-02T13:54:08.197Z,7.81
2023-02-02T13:56:43.897Z,7.82
2023-02-02T13:59:34.986Z,7.83
2023-02-02T14:02:01.756Z,7.81
2023-02-02T14:04:31.010Z,7.81
2023-02-02T14:07:05.266Z,7.81
2023-02-02T14:09:35.375Z,7.80
2023-02-02T14:12:07.098Z,7.81
2023-02-02T14:14:36.376Z,7.82
2023-02-02T14:17:13.153Z,7.80
2023-02-02T14:19:41.972Z,7.81
2023-02-02T14:22:14.446Z,7.83
2023-02-02T14:24:44.221Z,7.84
2023-02-02T14:27:10.893Z,7.84
2023-02-02T14:29:47.073Z,7.81
2023-02-02T14:32:28.696Z,7.78
2023-02-02T14:35:00.845Z,7.77
2023-02-02T14:37:32.762Z,7.79
2023-02-02T14:40:06.087Z,7.76
2023-02-02T14:43:30.552Z,7.76
2023-02-02T14:46:14.994Z,7.74
2023-02-02T14:48:49.218Z,7.73
2023-02-02T14:51:21.222Z,7.68
2023-02-02T14:53:52.336Z,7.69
2023-02-02T14:56:19.441Z,7.70
2023-02-02T14:58:52.019Z,7.69
2023-02-02T15:01:23.005Z,7.69
2023-02-02T15:03:53.124Z,7.67
2023-02-02T15:06:22.680Z,7.66
2023-02-02T15:09:20.092Z,7.67
2023-02-02T15:12:00.882Z,7.65
2023-02-02T15:14:33.884Z,7.63
2023-02-02T15:17:38.898Z,7.64
2023-02-02T15:20:05.362Z,7.62
2023-02-02T15:22:45.907Z,7.64
2023-02-02T15:25:31.075Z,7.63
2023-02-02T15:28:22.763Z,7.63
2023-02-02T15:30:56.615Z,7.63
2023-02-02T15:33:36.905Z,7.63
2023-02-02T15:36:14.102Z,7.63
2023-02-02T15:38:43.238Z,7.60
2023-02-02T15:41:27.906Z,7.62
2023-02-02T15:43:54.555Z,7.64
2023-02-02T15:46:25.300Z,7.64
2023-02-02T15:49:35.800Z,7.63
2023-02-02T15:52:19.173Z,7.65
2023-02-02T15:54:57.802Z,7.65
2023-02-02T15:57:31.166Z,7.65
2023-02-02T15:59:58.422Z,7.65
2023-02-02T16:02:46.535Z,7.67
2023-02-02T16:05:31.895Z,7.69
2023-02-02T16:08:06.097Z,7.70
2023-02-02T16:10:34.100Z,7.69
2023-02-02T16:13:01.050Z,7.69
2023-02-02T16:15:31.729Z,7.67
2023-02-02T16:18:15.332Z,7.69
2023-02-02T16:20:43.064Z,7.69
2023-02-02T16:23:15.323Z,7.69
2023-02-02T16:25:49.738Z,7.66
2023-02-02T16:28:21.292Z,7.69
2023-02-02T16:30:48.232Z,7.69
2023-02-02T16:33:30.998Z,7.71
2023-02-02T16:35:57.736Z,7.70
2023-02-02T16:38:35.900Z,7.69
2023-02-02T16:41:05.262Z,7.71
2023-02-02T16:43:32.379Z,7.70
2023-02-02T16:46:40.724Z,7.69
2023-02-02T16:49:16.533Z,7.70
2023-02-02T16:51:44.873Z,7.70
2023-02-02T16:54:19.250Z,7.69
2023-02-02T16:56:51.811Z,7.69
2023-02-02T16:59:34.591Z,7.69
2023-02-02T17:02:04.968Z,7.67
2023-02-02T17:04:34.027Z,7.67
2023-02-02T17:07:13.347Z,7.69
2023-02-02T17:09:41.665Z,7.69
2023-02-02T17:12:34.858Z,7.71
2023-02-02T17:15:24.538Z,7.71
2023-02-02T17:17:52.313Z,7.70
2023-02-02T17:20:20.136Z,7.71
2023-02-02T17:22:49.232Z,7.72
2023-02-02T17:25:18.503Z,7.71
2023-02-02T17:27:45.746Z,7.75
2023-02-02T17:30:17.798Z,7.74
2023-02-02T17:32:44.415Z,7.74
2023-02-02T17:35:16.429Z,7.74
2023-02-02T17:37:43.168Z,7.76
2023-02-02T17:40:14.721Z,7.76
2023-02-02T17:42:43.376Z,7.74
2023-02-02T17:45:16.896Z,7.76
2023-02-02T17:47:43.607Z,7.76
2023-02-02T17:50:11.138Z,7.77
2023-02-02T17:52:38.629Z,7.76
2023-02-02T17:55:20.599Z,7.77
2023-02-02T17:57:51.965Z,7.80
2023-02-02T18:00:21.596Z,7.79
2023-02-02T18:02:51.064Z,7.79
2023-02-02T18:05:18.800Z,7.77
2023-02-02T18:07:45.352Z,7.80
2023-02-02T18:10:14.252Z,7.80
2023-02-02T18:12:41.840Z,7.80
2023-02-02T18:15:12.400Z,7.81
2023-02-02T18:17:38.915Z,7.80
2023-02-02T18:20:06.060Z,7.79
2023-02-02T18:22:32.923Z,7.81
2023-02-02T18:24:59.606Z,7.83
2023-02-02T18:27:26.157Z,7.81
2023-02-02T18:29:52.701Z,7.83
2023-02-02T18:32:19.306Z,7.82
2023-02-02T18:34:47.536Z,7.83
2023-02-02T18:37:14.037Z,7.81
2023-02-02T18:39:40.493Z,7.81
2023-02-02T18:42:06.939Z,7.81
2023-02-02T18:44:35.264Z,7.85
2023-02-02T18:47:01.799Z,7.86
2023-02-02T18:49:28.603Z,7.85
2023-02-02T18:51:55.124Z,7.85
2023-02-02T18:54:22.387Z,7.86
2023-02-02T18:56:49.172Z,7.85
2023-02-02T18:59:15.880Z,7.84
2023-02-02T19:01:42.440Z,7.82
2023-02-02T19:04:09.112Z,7.83
2023-02-02T19:06:54.206Z,7.82
2023-02-02T19:09:22.220Z,7.84
2023-02-02T19:11:50.798Z,7.81
2023-02-02T19:14:24.590Z,7.78
2023-02-02T19:16:52.576Z,7.76
2023-02-02T19:19:23.936Z,7.75
2023-02-02T19:21:56.437Z,7.69
2023-02-02T19:24:25.956Z,7.69
2023-02-02T19:26:53.460Z,7.65
2023-02-02T19:29:22.402Z,7.61
2023-02-02T19:32:04.883Z,7.63
2023-02-02T19:34:33.538Z,7.60
2023-02-02T19:37:10.398Z,7.59
2023-02-02T19:39:36.888Z,7.54
2023-02-02T19:42:11.360Z,7.54
2023-02-02T19:44:40.606Z,7.51
2023-02-02T19:47:30.340Z,7.48
2023-02-02T19:49:57.383Z,7.48
2023-02-02T19:52:26.151Z,7.44
2023-02-02T19:54:53.788Z,7.48
2023-02-02T19:57:36.724Z,7.49
2023-02-02T20:00:20.001Z,7.51
2023-02-02T20:02:52.360Z,7.52
2023-02-02T20:05:47.124Z,7.56
2023-02-02T20:08:24.734Z,7.58
2023-02-02T20:10:57.390Z,7.56
2023-02-02T20:13:35.625Z,7.59
2023-02-02T20:16:04.840Z,7.62
2023-02-02T20:18:45.256Z,7.63
2023-02-02T20:21:38.697Z,7.69
2023-02-02T20:24:14.804Z,7.66
2023-02-02T20:26:41.301Z,7.68
2023-02-02T20:29:18.313Z,7.69
2023-02-02T20:31:47.387Z,7.71
2023-02-02T20:34:22.836Z,7.71
2023-02-02T20:36:49.665Z,7.73
2023-02-02T20:39:16.051Z,7.73
2023-02-02T20:41:43.910Z,7.71
2023-02-02T20:44:11.325Z,7.70
2023-02-02T20:46:37.744Z,7.73
2023-02-02T20:49:05.647Z,7.71
2023-02-02T20:51:32.491Z,7.72
2023-02-02T20:53:59.051Z,7.70
2023-02-02T20:56:25.805Z,7.73
2023-02-02T20:58:52.275Z,7.74
2023-02-02T21:01:19.443Z,7.75
2023-02-02T21:03:45.966Z,7.75
2023-02-02T21:06:12.408Z,7.78
2023-02-02T21:08:39.017Z,7.79
2023-02-02T21:11:05.458Z,7.82
2023-02-02T21:13:31.911Z,7.84
2023-02-02T21:15:58.487Z,7.86
2023-02-02T21:18:24.958Z,7.86
2023-02-02T21:20:51.447Z,7.85
2023-02-02T21:23:18.204Z,7.87
2023-02-02T21:25:44.702Z,7.89
2023-02-02T21:28:11.191Z,7.90
2023-02-02T21:30:37.745Z,7.90
2023-02-02T21:33:07.744Z,7.90
2023-02-02T21:35:34.587Z,7.90
2023-02-02T21:38:13.275Z,7.90
2023-02-02T21:40:40.317Z,7.90
2023-02-02T21:43:14.855Z,7.91
2023-02-02T21:45:42.939Z,7.92
2023-02-02T21:48:34.562Z,7.95
2023-02-02T21:51:19.389Z,7.96
2023-02-02T21:53:45.863Z,7.96
2023-02-02T21:56:26.275Z,7.99
2023-02-02T21:58:53.411Z,8.00
2023-02-02T22:01:24.052Z,8.04
2023-02-02T22:03:51.000Z,8.04
2023-02-02T22:06:36.625Z,8.07
2023-02-02T22:09:12.184Z,8.06
2023-02-02T22:11:49.389Z,8.07
2023-02-02T22:14:30.153Z,8.09
2023-02-02T22:16:58.560Z,8.09
2023-02-02T22:19:26.855Z,8.10
2023-02-02T22:21:55.050Z,8.09
2023-02-02T22:24:21.584Z,8.10
2023-02-02T22:26:48.354Z,8.09
2023-02-02T22:29:21.083Z,8.08
2023-02-02T22:31:48.221Z,8.11
2023-02-02T22:34:14.757Z,8.12
2023-02-02T22:36:41.463Z,8.11
2023-02-02T22:39:07.884Z,8.13
2023-02-02T22:41:34.362Z,8.15
2023-02-02T22:44:00.817Z,8.15
2023-02-02T22:46:27.329Z,8.18
2023-02-02T22:48:53.922Z,8.21
2023-02-02T22:51:20.422Z,8.20
2023-02-02T22:53:47.200Z,8.19
2023-02-02T22:56:13.940Z,8.19
2023-02-02T22:58:40.377Z,8.21
2023-02-02T23:01:06.895Z,8.22
2023-02-02T23:03:33.435Z,8.24
2023-02-02T23:05:59.878Z,8.24
2023-02-02T23:08:26.345Z,8.22
2023-02-02T23:10:52.863Z,8.22
2023-02-02T23:13:20.246Z,8.18
2023-02-02T23:15:46.711Z,8.18
2023-02-02T23:18:13.235Z,8.18
2023-02-02T23:20:39.683Z,8.22
2023-02-02T23:23:06.120Z,8.24
2023-02-02T23:25:32.568Z,8.26
2023-02-02T23:27:59.152Z,8.27
2023-02-02T23:30:25.964Z,8.27
2023-02-02T23:32:53.101Z,8.29
2023-02-02T23:35:19.617Z,8.29
2023-02-02T23:37:46.126Z,8.30
2023-02-02T23:40:13.035Z,8.34
2023-02-02T23:42:39.586Z,8.33
2023-02-02T23:45:06.557Z,8.35
2023-02-02T23:47:34.427Z,8.36
2023-02-02T23:50:04.204Z,8.31
2023-02-02T23:52:32.632Z,8.34
2023-02-02T23:55:01.316Z,8.35
2023-02-02T23:57:27.878Z,8.34
2023-02-02T23:59:54.361Z,8.36
